sensor_id;sensor_type;location;lat;lon;timestamp;pressure;altitude;pressure_sealevel;temperature;humidity
39613;BME280;25303;48.896;13.342;2022-12-18T00:02:39;93772.22;;;-6.05;71.74
39613;BME280;25303;48.896;13.342;2022-12-18T00:05:22;93769.63;;;-6.02;71.56
39613;BME280;25303;48.896;13.342;2022-12-18T00:08:06;93767.13;;;-6.02;71.39
39613;BME280;25303;48.896;13.342;2022-12-18T00:10:50;93773.06;;;-6.04;71.35
39613;BME280;25303;48.896;13.342;2022-12-18T00:13:33;93778.81;;;-6.02;71.23
39613;BME280;25303;48.896;13.342;2022-12-18T00:16:19;93777.22;;;-6.05;71.24
39613;BME280;25303;48.896;13.342;2022-12-18T00:19:03;93780.56;;;-6.04;71.20
39613;BME280;25303;48.896;13.342;2022-12-18T00:21:46;93787.38;;;-6.09;71.42
39613;BME280;25303;48.896;13.342;2022-12-18T00:24:30;93779.84;;;-6.09;71.33
39613;BME280;25303;48.896;13.342;2022-12-18T00:27:13;93784.81;;;-6.08;71.36
39613;BME280;25303;48.896;13.342;2022-12-18T00:29:56;93793.97;;;-6.07;71.11
39613;BME280;25303;48.896;13.342;2022-12-18T00:32:39;93799.91;;;-6.11;71.37
39613;BME280;25303;48.896;13.342;2022-12-18T00:35:22;93802.47;;;-6.13;71.35
39613;BME280;25303;48.896;13.342;2022-12-18T00:38:06;93807.66;;;-6.20;71.50
39613;BME280;25303;48.896;13.342;2022-12-18T00:40:50;93804.38;;;-6.24;71.11
39613;BME280;25303;48.896;13.342;2022-12-18T00:43:33;93807.03;;;-6.30;71.31
39613;BME280;25303;48.896;13.342;2022-12-18T00:46:16;93813.00;;;-6.36;71.76
39613;BME280;25303;48.896;13.342;2022-12-18T00:49:00;93821.41;;;-6.38;72.00
39613;BME280;25303;48.896;13.342;2022-12-18T00:51:43;93821.41;;;-6.40;72.10
39613;BME280;25303;48.896;13.342;2022-12-18T00:54:26;93818.91;;;-6.38;72.14
39613;BME280;25303;48.896;13.342;2022-12-18T00:57:10;93819.66;;;-6.36;72.29
39613;BME280;25303;48.896;13.342;2022-12-18T00:59:53;93810.53;;;-6.37;72.21
39613;BME280;25303;48.896;13.342;2022-12-18T01:02:36;93813.84;;;-6.37;72.22
39613;BME280;25303;48.896;13.342;2022-12-18T01:05:20;93812.13;;;-6.35;72.10
39613;BME280;25303;48.896;13.342;2022-12-18T01:08:03;93823.66;;;-6.28;71.99
39613;BME280;25303;48.896;13.342;2022-12-18T01:10:46;93821.88;;;-6.22;71.92
39613;BME280;25303;48.896;13.342;2022-12-18T01:13:30;93818.47;;;-6.20;71.72
39613;BME280;25303;48.896;13.342;2022-12-18T01:16:14;93814.31;;;-6.19;71.70
39613;BME280;25303;48.896;13.342;2022-12-18T01:18:57;93810.16;;;-6.20;71.47
39613;BME280;25303;48.896;13.342;2022-12-18T01:21:41;93807.53;;;-6.16;71.34
39613;BME280;25303;48.896;13.342;2022-12-18T01:24:24;93810.94;;;-6.18;71.23
39613;BME280;25303;48.896;13.342;2022-12-18T01:27:07;93815.13;;;-6.19;71.23
39613;BME280;25303;48.896;13.342;2022-12-18T01:29:51;93815.09;;;-6.17;71.17
39613;BME280;25303;48.896;13.342;2022-12-18T01:32:34;93806.75;;;-6.18;71.08
39613;BME280;25303;48.896;13.342;2022-12-18T01:35:17;93815.13;;;-6.19;71.22
39613;BME280;25303;48.896;13.342;2022-12-18T01:38:00;93815.03;;;-6.14;71.05
39613;BME280;25303;48.896;13.342;2022-12-18T01:40:43;93815.06;;;-6.16;70.99
39613;BME280;25303;48.896;13.342;2022-12-18T01:43:41;93818.34;;;-6.14;71.04
39613;BME280;25303;48.896;13.342;2022-12-18T01:46:26;93813.28;;;-6.11;71.09
39613;BME280;25303;48.896;13.342;2022-12-18T01:49:11;93811.53;;;-6.07;71.01
39613;BME280;25303;48.896;13.342;2022-12-18T01:51:53;93818.97;;;-6.04;71.07
39613;BME280;25303;48.896;13.342;2022-12-18T01:54:36;93815.56;;;-6.01;71.01
39613;BME280;25303;48.896;13.342;2022-12-18T01:57:19;93813.06;;;-6.00;71.02
39613;BME280;25303;48.896;13.342;2022-12-18T02:00:07;93829.66;;;-5.97;70.91
39613;BME280;25303;48.896;13.342;2022-12-18T02:02:55;93828.75;;;-5.95;70.92
39613;BME280;25303;48.896;13.342;2022-12-18T02:05:44;93827.91;;;-5.93;70.78
39613;BME280;25303;48.896;13.342;2022-12-18T02:08:34;93829.59;;;-5.94;70.70
39613;BME280;25303;48.896;13.342;2022-12-18T02:11:26;93827.16;;;-5.97;70.66
39613;BME280;25303;48.896;13.342;2022-12-18T02:14:18;93828.88;;;-5.99;70.76
39613;BME280;25303;48.896;13.342;2022-12-18T02:17:14;93830.63;;;-6.01;70.85
39613;BME280;25303;48.896;13.342;2022-12-18T02:20:11;93825.66;;;-6.03;70.77
39613;BME280;25303;48.896;13.342;2022-12-18T02:23:06;93816.47;;;-6.04;70.84
39613;BME280;25303;48.896;13.342;2022-12-18T02:26:04;93813.19;;;-6.06;70.68
39613;BME280;25303;48.896;13.342;2022-12-18T02:28:52;93813.25;;;-6.09;70.69
39613;BME280;25303;48.896;13.342;2022-12-18T02:31:39;93819.19;;;-6.13;70.66
39613;BME280;25303;48.896;13.342;2022-12-18T02:34:26;93819.25;;;-6.16;70.52
39613;BME280;25303;48.896;13.342;2022-12-18T02:37:14;93825.16;;;-6.19;70.76
39613;BME280;25303;48.896;13.342;2022-12-18T02:39:59;93817.66;;;-6.20;70.79
39613;BME280;25303;48.896;13.342;2022-12-18T02:42:45;93816.88;;;-6.22;71.01
39613;BME280;25303;48.896;13.342;2022-12-18T02:45:32;93824.38;;;-6.21;71.01
39613;BME280;25303;48.896;13.342;2022-12-18T02:48:16;93822.63;;;-6.17;71.03
39613;BME280;25303;48.896;13.342;2022-12-18T02:51:06;93817.50;;;-6.13;71.17
39613;BME280;25303;48.896;13.342;2022-12-18T02:53:53;93811.56;;;-6.08;71.09
39613;BME280;25303;48.896;13.342;2022-12-18T02:56:46;93804.78;;;-6.05;70.94
39613;BME280;25303;48.896;13.342;2022-12-18T02:59:40;93809.75;;;-6.03;70.93
39613;BME280;25303;48.896;13.342;2022-12-18T03:02:29;93815.63;;;-6.03;70.70
39613;BME280;25303;48.896;13.342;2022-12-18T03:05:18;93817.22;;;-6.00;70.90
39613;BME280;25303;48.896;13.342;2022-12-18T03:08:07;93822.25;;;-6.00;70.71
39613;BME280;25303;48.896;13.342;2022-12-18T03:10:57;93819.78;;;-6.03;70.91
39613;BME280;25303;48.896;13.342;2022-12-18T03:13:45;93813.19;;;-6.06;70.95
39613;BME280;25303;48.896;13.342;2022-12-18T03:16:33;93822.41;;;-6.08;70.90
39613;BME280;25303;48.896;13.342;2022-12-18T03:19:22;93829.97;;;-6.09;70.93
39613;BME280;25303;48.896;13.342;2022-12-18T03:22:07;93818.31;;;-6.11;70.92
39613;BME280;25303;48.896;13.342;2022-12-18T03:25:01;93819.94;;;-6.09;70.92
39613;BME280;25303;48.896;13.342;2022-12-18T03:27:47;93830.84;;;-6.11;70.91
39613;BME280;25303;48.896;13.342;2022-12-18T03:30:33;93832.59;;;-6.14;70.64
39613;BME280;25303;48.896;13.342;2022-12-18T03:33:23;93837.69;;;-6.19;70.38
39613;BME280;25303;48.896;13.342;2022-12-18T03:36:09;93838.69;;;-6.28;70.22
39613;BME280;25303;48.896;13.342;2022-12-18T03:38:52;93837.16;;;-6.33;70.38
39613;BME280;25303;48.896;13.342;2022-12-18T03:41:43;93836.41;;;-6.37;70.36
39613;BME280;25303;48.896;13.342;2022-12-18T03:44:52;93840.66;;;-6.42;70.55
39613;BME280;25303;48.896;13.342;2022-12-18T03:47:41;93838.19;;;-6.44;70.75
39613;BME280;25303;48.896;13.342;2022-12-18T03:50:37;93837.34;;;-6.43;70.81
39613;BME280;25303;48.896;13.342;2022-12-18T03:53:28;93843.97;;;-6.40;70.82
39613;BME280;25303;48.896;13.342;2022-12-18T03:56:16;93848.97;;;-6.40;70.92
39613;BME280;25303;48.896;13.342;2022-12-18T03:59:00;93854.00;;;-6.40;71.04
39613;BME280;25303;48.896;13.342;2022-12-18T04:01:49;93853.19;;;-6.41;70.80
39613;BME280;25303;48.896;13.342;2022-12-18T04:04:34;93846.53;;;-6.42;70.85
39613;BME280;25303;48.896;13.342;2022-12-18T04:07:20;93837.34;;;-6.43;71.01
39613;BME280;25303;48.896;13.342;2022-12-18T04:10:06;93839.91;;;-6.46;70.86
39613;BME280;25303;48.896;13.342;2022-12-18T04:12:49;93846.56;;;-6.45;71.10
39613;BME280;25303;48.896;13.342;2022-12-18T04:15:34;93844.13;;;-6.46;71.07
39613;BME280;25303;48.896;13.342;2022-12-18T04:18:20;93843.28;;;-6.47;71.12
39613;BME280;25303;48.896;13.342;2022-12-18T04:21:03;93843.31;;;-6.48;71.35
39613;BME280;25303;48.896;13.342;2022-12-18T04:23:48;93846.69;;;-6.51;71.38
39613;BME280;25303;48.896;13.342;2022-12-18T04:26:34;93848.41;;;-6.53;71.33
39613;BME280;25303;48.896;13.342;2022-12-18T04:29:28;93845.88;;;-6.53;71.35
39613;BME280;25303;48.896;13.342;2022-12-18T04:32:11;93845.13;;;-6.57;71.50
39613;BME280;25303;48.896;13.342;2022-12-18T04:34:57;93854.34;;;-6.59;71.44
39613;BME280;25303;48.896;13.342;2022-12-18T04:37:40;93858.50;;;-6.58;71.52
39613;BME280;25303;48.896;13.342;2022-12-18T04:40:25;93868.56;;;-6.59;71.32
39613;BME280;25303;48.896;13.342;2022-12-18T04:43:08;93871.09;;;-6.61;71.35
39613;BME280;25303;48.896;13.342;2022-12-18T04:45:51;93877.84;;;-6.63;71.30
39613;BME280;25303;48.896;13.342;2022-12-18T04:48:35;93885.34;;;-6.63;71.19
39613;BME280;25303;48.896;13.342;2022-12-18T04:51:18;93888.72;;;-6.64;71.06
39613;BME280;25303;48.896;13.342;2022-12-18T04:54:07;93884.56;;;-6.66;70.87
39613;BME280;25303;48.896;13.342;2022-12-18T04:56:51;93888.00;;;-6.70;70.62
39613;BME280;25303;48.896;13.342;2022-12-18T04:59:35;93890.56;;;-6.74;70.64
39613;BME280;25303;48.896;13.342;2022-12-18T05:02:18;93887.25;;;-6.76;70.53
39613;BME280;25303;48.896;13.342;2022-12-18T05:05:01;93893.91;;;-6.76;70.84
39613;BME280;25303;48.896;13.342;2022-12-18T05:07:44;93894.75;;;-6.76;70.92
39613;BME280;25303;48.896;13.342;2022-12-18T05:10:27;93888.09;;;-6.77;71.17
39613;BME280;25303;48.896;13.342;2022-12-18T05:13:19;93897.28;;;-6.77;71.18
39613;BME280;25303;48.896;13.342;2022-12-18T05:16:02;93902.38;;;-6.80;71.20
39613;BME280;25303;48.896;13.342;2022-12-18T05:18:45;93900.66;;;-6.80;71.22
39613;BME280;25303;48.896;13.342;2022-12-18T05:21:28;93903.97;;;-6.78;71.15
39613;BME280;25303;48.896;13.342;2022-12-18T05:24:11;93905.69;;;-6.80;71.25
39613;BME280;25303;48.896;13.342;2022-12-18T05:26:54;93900.63;;;-6.77;71.18
39613;BME280;25303;48.896;13.342;2022-12-18T05:29:38;93898.06;;;-6.75;71.13
39613;BME280;25303;48.896;13.342;2022-12-18T05:32:21;93898.06;;;-6.75;71.13
39613;BME280;25303;48.896;13.342;2022-12-18T05:35:05;93900.56;;;-6.75;70.93
39613;BME280;25303;48.896;13.342;2022-12-18T05:37:48;93908.94;;;-6.75;70.99
39613;BME280;25303;48.896;13.342;2022-12-18T05:40:31;93904.78;;;-6.77;70.74
39613;BME280;25303;48.896;13.342;2022-12-18T05:43:14;93908.22;;;-6.83;70.75
39613;BME280;25303;48.896;13.342;2022-12-18T05:46:07;93914.88;;;-6.82;70.79
39613;BME280;25303;48.896;13.342;2022-12-18T05:48:50;93907.31;;;-6.79;70.90
39613;BME280;25303;48.896;13.342;2022-12-18T05:51:33;93903.94;;;-6.75;70.99
39613;BME280;25303;48.896;13.342;2022-12-18T05:54:16;93912.19;;;-6.71;71.03
39613;BME280;25303;48.896;13.342;2022-12-18T05:56:59;93912.19;;;-6.71;70.81
39613;BME280;25303;48.896;13.342;2022-12-18T05:59:42;93913.91;;;-6.73;70.94
39613;BME280;25303;48.896;13.342;2022-12-18T06:02:26;93912.19;;;-6.71;70.95
39613;BME280;25303;48.896;13.342;2022-12-18T06:05:09;93911.38;;;-6.72;70.86
39613;BME280;25303;48.896;13.342;2022-12-18T06:07:53;93918.09;;;-6.74;70.93
39613;BME280;25303;48.896;13.342;2022-12-18T06:10:36;93926.41;;;-6.72;71.00
39613;BME280;25303;48.896;13.342;2022-12-18T06:13:19;93927.22;;;-6.71;70.93
39613;BME280;25303;48.896;13.342;2022-12-18T06:16:03;93923.81;;;-6.68;70.88
39613;BME280;25303;48.896;13.342;2022-12-18T06:18:47;93920.47;;;-6.66;70.76
39613;BME280;25303;48.896;13.342;2022-12-18T06:21:31;93922.13;;;-6.65;70.55
39613;BME280;25303;48.896;13.342;2022-12-18T06:24:15;93932.13;;;-6.66;70.37
39613;BME280;25303;48.896;13.342;2022-12-18T06:26:58;93925.47;;;-6.67;70.30
39613;BME280;25303;48.896;13.342;2022-12-18T06:29:41;93918.81;;;-6.67;70.23
39613;BME280;25303;48.896;13.342;2022-12-18T06:32:24;93920.41;;;-6.64;70.15
39613;BME280;25303;48.896;13.342;2022-12-18T06:35:09;93926.28;;;-6.64;70.01
39613;BME280;25303;48.896;13.342;2022-12-18T06:37:51;93927.06;;;-6.62;69.88
39613;BME280;25303;48.896;13.342;2022-12-18T06:40:36;93923.72;;;-6.62;69.80
39613;BME280;25303;48.896;13.342;2022-12-18T06:43:19;93928.78;;;-6.64;69.60
39613;BME280;25303;48.896;13.342;2022-12-18T06:46:03;93919.59;;;-6.65;69.65
39613;BME280;25303;48.896;13.342;2022-12-18T06:48:48;93919.59;;;-6.65;69.40
39613;BME280;25303;48.896;13.342;2022-12-18T06:51:32;93916.25;;;-6.64;69.62
39613;BME280;25303;48.896;13.342;2022-12-18T06:54:15;93921.22;;;-6.62;69.67
39613;BME280;25303;48.896;13.342;2022-12-18T06:56:58;93927.03;;;-6.60;69.82
39613;BME280;25303;48.896;13.342;2022-12-18T06:59:41;93928.66;;;-6.58;69.88
39613;BME280;25303;48.896;13.342;2022-12-18T07:02:24;93929.44;;;-6.56;69.67
39613;BME280;25303;48.896;13.342;2022-12-18T07:05:07;93936.09;;;-6.54;69.68
39613;BME280;25303;48.896;13.342;2022-12-18T07:07:53;93934.38;;;-6.51;69.76
39613;BME280;25303;48.896;13.342;2022-12-18T07:10:40;93930.16;;;-6.49;69.56
39613;BME280;25303;48.896;13.342;2022-12-18T07:13:28;93933.41;;;-6.44;69.66
39613;BME280;25303;48.896;13.342;2022-12-18T07:16:13;93938.38;;;-6.42;69.62
39613;BME280;25303;48.896;13.342;2022-12-18T07:19:04;93938.38;;;-6.41;69.48
39613;BME280;25303;48.896;13.342;2022-12-18T07:21:47;93940.03;;;-6.41;69.21
39613;BME280;25303;48.896;13.342;2022-12-18T07:24:32;93950.91;;;-6.41;69.29
39613;BME280;25303;48.896;13.342;2022-12-18T07:27:15;93950.81;;;-6.36;69.34
39613;BME280;25303;48.896;13.342;2022-12-18T07:29:58;93956.53;;;-6.29;69.59
39613;BME280;25303;48.896;13.342;2022-12-18T07:32:41;93956.38;;;-6.21;69.37
39613;BME280;25303;48.896;13.342;2022-12-18T07:35:24;93955.47;;;-6.17;69.19
39613;BME280;25303;48.896;13.342;2022-12-18T07:38:07;93964.53;;;-6.12;69.03
39613;BME280;25303;48.896;13.342;2022-12-18T07:40:51;93961.91;;;-6.05;69.01
39613;BME280;25303;48.896;13.342;2022-12-18T07:43:34;93970.19;;;-6.02;68.63
39613;BME280;25303;48.896;13.342;2022-12-18T07:46:18;93966.66;;;-5.93;68.85
39613;BME280;25303;48.896;13.342;2022-12-18T07:49:01;93959.81;;;-5.86;68.62
39613;BME280;25303;48.896;13.342;2022-12-18T07:51:44;93962.97;;;-5.76;68.17
39613;BME280;25303;48.896;13.342;2022-12-18T07:54:30;93960.38;;;-5.72;67.71
39613;BME280;25303;48.896;13.342;2022-12-18T07:57:16;93963.56;;;-5.65;67.77
39613;BME280;25303;48.896;13.342;2022-12-18T08:00:19;93972.63;;;-5.58;67.97
39613;BME280;25303;48.896;13.342;2022-12-18T08:03:02;93973.31;;;-5.51;67.88
39613;BME280;25303;48.896;13.342;2022-12-18T08:05:49;93972.31;;;-5.44;67.69
39613;BME280;25303;48.896;13.342;2022-12-18T08:08:33;93969.63;;;-5.36;67.70
39613;BME280;25303;48.896;13.342;2022-12-18T08:11:16;93967.78;;;-5.28;67.65
39613;BME280;25303;48.896;13.342;2022-12-18T08:14:01;93980.94;;;-5.18;67.58
39613;BME280;25303;48.896;13.342;2022-12-18T08:16:44;93971.53;;;-5.10;67.61
39613;BME280;25303;48.896;13.342;2022-12-18T08:19:27;93973.00;;;-4.99;67.53
39613;BME280;25303;48.896;13.342;2022-12-18T08:22:09;93974.41;;;-4.89;67.58
39613;BME280;25303;48.896;13.342;2022-12-18T08:24:52;93971.53;;;-4.74;68.14
39613;BME280;25303;48.896;13.342;2022-12-18T08:27:35;93968.50;;;-4.53;68.57
39613;BME280;25303;48.896;13.342;2022-12-18T08:30:19;93968.69;;;-4.28;68.62
39613;BME280;25303;48.896;13.342;2022-12-18T08:33:03;93973.81;;;-4.00;68.38
39613;BME280;25303;48.896;13.342;2022-12-18T08:35:45;93967.13;;;-3.71;68.28
39613;BME280;25303;48.896;13.342;2022-12-18T08:38:29;93963.91;;;-3.46;67.72
39613;BME280;25303;48.896;13.342;2022-12-18T08:41:14;93967.56;;;-3.28;67.16
39613;BME280;25303;48.896;13.342;2022-12-18T08:43:58;93979.59;;;-3.09;67.26
39613;BME280;25303;48.896;13.342;2022-12-18T08:46:59;93977.09;;;-2.82;67.05
39613;BME280;25303;48.896;13.342;2022-12-18T08:49:42;93978.09;;;-2.61;66.39
39613;BME280;25303;48.896;13.342;2022-12-18T08:52:25;93981.09;;;-2.50;65.47
39613;BME280;25303;48.896;13.342;2022-12-18T08:55:09;93987.78;;;-2.49;64.30
39613;BME280;25303;48.896;13.342;2022-12-18T08:57:51;93986.28;;;-2.54;64.05
39613;BME280;25303;48.896;13.342;2022-12-18T09:00:34;93996.41;;;-2.56;63.86
39613;BME280;25303;48.896;13.342;2022-12-18T09:03:19;93997.94;;;-2.52;64.21
39613;BME280;25303;48.896;13.342;2022-12-18T09:06:04;93996.56;;;-2.35;64.52
39613;BME280;25303;48.896;13.342;2022-12-18T09:08:47;93991.09;;;-2.23;64.57
39613;BME280;25303;48.896;13.342;2022-12-18T09:11:31;93987.50;;;-2.16;64.07
39613;BME280;25303;48.896;13.342;2022-12-18T09:14:14;93992.50;;;-2.14;64.00
39613;BME280;25303;48.896;13.342;2022-12-18T09:16:57;93995.78;;;-2.12;63.91
39613;BME280;25303;48.896;13.342;2022-12-18T09:19:41;93999.06;;;-2.08;63.45
39613;BME280;25303;48.896;13.342;2022-12-18T09:22:24;93999.25;;;-2.15;62.79
39613;BME280;25303;48.896;13.342;2022-12-18T09:25:07;93999.19;;;-2.13;62.64
39613;BME280;25303;48.896;13.342;2022-12-18T09:27:50;94005.00;;;-2.11;62.40
39613;BME280;25303;48.896;13.342;2022-12-18T09:30:33;94011.59;;;-2.07;62.57
39613;BME280;25303;48.896;13.342;2022-12-18T09:33:17;94012.38;;;-2.05;62.15
39613;BME280;25303;48.896;13.342;2022-12-18T09:36:04;94008.22;;;-2.06;62.01
39613;BME280;25303;48.896;13.342;2022-12-18T09:38:48;94006.50;;;-2.05;61.98
39613;BME280;25303;48.896;13.342;2022-12-18T09:41:40;94009.16;;;-2.08;61.71
39613;BME280;25303;48.896;13.342;2022-12-18T09:44:26;94013.25;;;-2.06;61.98
39613;BME280;25303;48.896;13.342;2022-12-18T09:47:13;94019.00;;;-2.02;61.79
39613;BME280;25303;48.896;13.342;2022-12-18T09:49:59;94006.19;;;-1.96;61.78
39613;BME280;25303;48.896;13.342;2022-12-18T09:52:47;94006.13;;;-1.94;61.30
39613;BME280;25303;48.896;13.342;2022-12-18T09:55:34;94003.59;;;-1.94;61.31
39613;BME280;25303;48.896;13.342;2022-12-18T09:58:22;94003.69;;;-1.96;61.06
39613;BME280;25303;48.896;13.342;2022-12-18T10:01:10;93999.41;;;-1.94;61.43
39613;BME280;25303;48.896;13.342;2022-12-18T10:03:53;93989.34;;;-1.95;61.52
39613;BME280;25303;48.896;13.342;2022-12-18T10:06:42;93994.38;;;-1.95;61.45
39613;BME280;25303;48.896;13.342;2022-12-18T10:09:33;93988.47;;;-1.94;61.55
39613;BME280;25303;48.896;13.342;2022-12-18T10:12:21;93987.81;;;-2.00;61.53
39613;BME280;25303;48.896;13.342;2022-12-18T10:15:12;93982.66;;;-1.96;61.89
39613;BME280;25303;48.896;13.342;2022-12-18T10:18:03;93968.00;;;-1.87;62.12
39613;BME280;25303;48.896;13.342;2022-12-18T10:20:49;93968.47;;;-1.75;61.91
39613;BME280;25303;48.896;13.342;2022-12-18T10:23:40;93980.63;;;-1.87;61.27
39613;BME280;25303;48.896;13.342;2022-12-18T10:26:31;93972.41;;;-1.92;61.64
39613;BME280;25303;48.896;13.342;2022-12-18T10:29:15;93970.50;;;-1.85;61.69
39613;BME280;25303;48.896;13.342;2022-12-18T10:31:58;93974.06;;;-1.91;60.32
39613;BME280;25303;48.896;13.342;2022-12-18T10:34:45;93962.16;;;-1.87;60.26
39613;BME280;25303;48.896;13.342;2022-12-18T10:37:29;93961.81;;;-1.78;60.64
39613;BME280;25303;48.896;13.342;2022-12-18T10:40:12;93960.66;;;-1.69;59.97
39613;BME280;25303;48.896;13.342;2022-12-18T10:43:12;93962.78;;;-1.58;60.72
39613;BME280;25303;48.896;13.342;2022-12-18T10:46:01;93959.03;;;-1.48;61.02
39613;BME280;25303;48.896;13.342;2022-12-18T10:48:52;93950.28;;;-1.39;61.00
39613;BME280;25303;48.896;13.342;2022-12-18T10:51:36;93966.06;;;-1.32;60.65
39613;BME280;25303;48.896;13.342;2022-12-18T10:54:22;93965.44;;;-1.39;59.74
39613;BME280;25303;48.896;13.342;2022-12-18T10:57:16;93961.22;;;-1.39;60.14
39613;BME280;25303;48.896;13.342;2022-12-18T11:00:21;93952.59;;;-1.33;60.03
39613;BME280;25303;48.896;13.342;2022-12-18T11:03:30;93947.94;;;-1.22;60.40
39613;BME280;25303;48.896;13.342;2022-12-18T11:06:15;93956.06;;;-1.13;60.63
39613;BME280;25303;48.896;13.342;2022-12-18T11:08:58;93945.13;;;-1.14;59.18
39613;BME280;25303;48.896;13.342;2022-12-18T11:11:48;93944.19;;;-1.11;59.99
39613;BME280;25303;48.896;13.342;2022-12-18T11:14:34;93943.94;;;-1.05;60.34
39613;BME280;25303;48.896;13.342;2022-12-18T11:17:32;93936.06;;;-0.97;60.11
39613;BME280;25303;48.896;13.342;2022-12-18T11:20:23;93929.06;;;-1.13;60.37
39613;BME280;25303;48.896;13.342;2022-12-18T11:23:12;93932.63;;;-1.17;61.04
39613;BME280;25303;48.896;13.342;2022-12-18T11:25:57;93928.56;;;-1.21;60.75
39613;BME280;25303;48.896;13.342;2022-12-18T11:28:43;93920.63;;;-1.34;60.76
39613;BME280;25303;48.896;13.342;2022-12-18T11:31:28;93925.47;;;-1.50;60.57
39613;BME280;25303;48.896;13.342;2022-12-18T11:34:20;93922.88;;;-1.48;61.38
39613;BME280;25303;48.896;13.342;2022-12-18T11:37:11;93920.25;;;-1.47;61.22
39613;BME280;25303;48.896;13.342;2022-12-18T11:39:58;93918.50;;;-1.45;61.25
39613;BME280;25303;48.896;13.342;2022-12-18T11:42:48;93906.84;;;-1.47;61.29
39613;BME280;25303;48.896;13.342;2022-12-18T11:45:35;93913.28;;;-1.40;61.87
39613;BME280;25303;48.896;13.342;2022-12-18T11:48:25;93910.34;;;-1.29;61.84
39613;BME280;25303;48.896;13.342;2022-12-18T11:51:17;93915.75;;;-1.16;61.87
39613;BME280;25303;48.896;13.342;2022-12-18T11:54:12;93914.56;;;-1.08;61.69
39613;BME280;25303;48.896;13.342;2022-12-18T11:57:01;93915.53;;;-1.10;60.84
39613;BME280;25303;48.896;13.342;2022-12-18T11:59:53;93915.44;;;-1.09;61.19
39613;BME280;25303;48.896;13.342;2022-12-18T12:02:59;93922.69;;;-0.99;61.67
39613;BME280;25303;48.896;13.342;2022-12-18T12:05:54;93926.72;;;-0.95;61.17
39613;BME280;25303;48.896;13.342;2022-12-18T12:08:44;93926.47;;;-0.89;60.81
39613;BME280;25303;48.896;13.342;2022-12-18T12:11:39;93923.06;;;-0.88;61.49
39613;BME280;25303;48.896;13.342;2022-12-18T12:14:41;93923.88;;;-0.87;61.52
39613;BME280;25303;48.896;13.342;2022-12-18T12:17:32;93919.59;;;-0.85;61.55
39613;BME280;25303;48.896;13.342;2022-12-18T12:20:21;93932.88;;;-0.80;61.80
39613;BME280;25303;48.896;13.342;2022-12-18T12:23:16;93934.75;;;-0.85;61.65
39613;BME280;25303;48.896;13.342;2022-12-18T12:26:11;93935.25;;;-0.98;61.51
39613;BME280;25303;48.896;13.342;2022-12-18T12:29:03;93940.50;;;-1.02;61.67
39613;BME280;25303;48.896;13.342;2022-12-18T12:32:04;93940.19;;;-0.95;62.15
39613;BME280;25303;48.896;13.342;2022-12-18T12:34:58;93941.69;;;-0.90;62.22
39613;BME280;25303;48.896;13.342;2022-12-18T12:37:56;93943.94;;;-0.83;62.39
39613;BME280;25303;48.896;13.342;2022-12-18T12:40:47;93947.91;;;-0.77;62.27
39613;BME280;25303;48.896;13.342;2022-12-18T12:43:46;93940.16;;;-0.72;61.99
39613;BME280;25303;48.896;13.342;2022-12-18T12:46:34;93944.19;;;-0.68;62.11
39613;BME280;25303;48.896;13.342;2022-12-18T12:49:21;93944.34;;;-0.73;62.16
39613;BME280;25303;48.896;13.342;2022-12-18T12:52:14;93941.25;;;-0.80;62.08
39613;BME280;25303;48.896;13.342;2022-12-18T12:54:59;93944.56;;;-0.78;62.28
39613;BME280;25303;48.896;13.342;2022-12-18T12:57:45;93946.97;;;-0.74;62.63
39613;BME280;25303;48.896;13.342;2022-12-18T13:00:39;93955.06;;;-0.66;62.58
39613;BME280;25303;48.896;13.342;2022-12-18T13:03:32;93949.63;;;-0.57;62.58
39613;BME280;25303;48.896;13.342;2022-12-18T13:06:30;93939.19;;;-0.49;62.57
39613;BME280;25303;48.896;13.342;2022-12-18T13:09:18;93942.28;;;-0.42;62.67
39613;BME280;25303;48.896;13.342;2022-12-18T13:12:03;93942.28;;;-0.42;62.15
39613;BME280;25303;48.896;13.342;2022-12-18T13:15:13;93939.00;;;-0.44;61.49
39613;BME280;25303;48.896;13.342;2022-12-18T13:18:10;93929.88;;;-0.49;61.50
39613;BME280;25303;48.896;13.342;2022-12-18T13:21:12;93934.38;;;-0.55;61.59
39613;BME280;25303;48.896;13.342;2022-12-18T13:24:15;93938.09;;;-0.64;61.55
39613;BME280;25303;48.896;13.342;2022-12-18T13:27:53;93929.16;;;-0.71;61.69
39613;BME280;25303;48.896;13.342;2022-12-18T13:30:50;93933.31;;;-0.70;61.96
39613;BME280;25303;48.896;13.342;2022-12-18T13:34:11;93926.53;;;-0.70;61.37
39613;BME280;25303;48.896;13.342;2022-12-18T13:37:50;93929.91;;;-0.69;60.56
39613;BME280;25303;48.896;13.342;2022-12-18T13:40:58;93922.38;;;-0.71;60.61
39613;BME280;25303;48.896;13.342;2022-12-18T13:43:43;93923.41;;;-0.75;60.89
39613;BME280;25303;48.896;13.342;2022-12-18T13:46:28;93907.63;;;-0.82;61.05
39613;BME280;25303;48.896;13.342;2022-12-18T13:49:22;93905.41;;;-0.89;60.88
39613;BME280;25303;48.896;13.342;2022-12-18T13:52:16;93917.44;;;-0.95;61.26
39613;BME280;25303;48.896;13.342;2022-12-18T13:55:04;93906.56;;;-0.97;61.38
39613;BME280;25303;48.896;13.342;2022-12-18T13:57:48;93910.09;;;-1.01;61.61
39613;BME280;25303;48.896;13.342;2022-12-18T14:00:32;93905.16;;;-1.04;61.76
39613;BME280;25303;48.896;13.342;2022-12-18T14:03:19;93917.16;;;-1.09;61.89
39613;BME280;25303;48.896;13.342;2022-12-18T14:06:07;93913.88;;;-1.11;61.87
39613;BME280;25303;48.896;13.342;2022-12-18T14:08:51;93917.28;;;-1.12;62.04
39613;BME280;25303;48.896;13.342;2022-12-18T14:11:34;93921.50;;;-1.13;62.24
39613;BME280;25303;48.896;13.342;2022-12-18T14:14:19;93927.44;;;-1.14;62.10
39613;BME280;25303;48.896;13.342;2022-12-18T14:17:09;93921.63;;;-1.16;62.19
39613;BME280;25303;48.896;13.342;2022-12-18T14:19:53;93916.69;;;-1.19;62.14
39613;BME280;25303;48.896;13.342;2022-12-18T14:22:37;93918.47;;;-1.21;62.26
39613;BME280;25303;48.896;13.342;2022-12-18T14:25:26;93929.41;;;-1.00;61.56
39613;BME280;25303;48.896;13.342;2022-12-18T14:28:14;93924.13;;;-0.94;61.17
39613;BME280;25303;48.896;13.342;2022-12-18T14:30:58;93927.44;;;-0.92;60.98
39613;BME280;25303;48.896;13.342;2022-12-18T14:33:41;93930.13;;;-0.96;60.83
39613;BME280;25303;48.896;13.342;2022-12-18T14:36:26;93933.53;;;-0.97;60.51